Time;durP1;ratioP1;P1;durP2;ratioP2;P2;SDS_P1;SDS_P2;PMS_P1;PMS_P2;Temp;Humidity;BMP_temperature;BMP_pressure;BME280_temperature;BME280_humidity;BME280_pressure;Samples;Min_cycle;Max_cycle;Signal;HPM_P1;HPM_P2
2022/02/16 00:01:42;;;;;;;22.30;8.90;;;;;;;-0.74;76.97;99923.44;108977;1278;139667;-58
2022/02/16 00:04:10;;;;;;;18.10;7.80;;;;;;;-0.78;77.11;99917.42;109069;1278;22448;-58
2022/02/16 00:06:38;;;;;;;19.10;9.10;;;;;;;-0.78;77.35;99920.38;109085;1278;22474;-58
2022/02/16 00:09:07;;;;;;;11.70;7.30;;;;;;;-0.80;77.30;99917.48;108947;1278;139029;-58
2022/02/16 00:11:35;;;;;;;14.40;6.90;;;;;;;-0.79;77.56;99920.14;109070;1279;22475;-58
2022/02/16 00:14:03;;;;;;;19.70;8.80;;;;;;;-0.80;77.49;99913.80;109035;1277;137743;-58
2022/02/16 00:16:31;;;;;;;18.80;9.20;;;;;;;-0.81;77.38;99908.38;109118;1277;22427;-58
2022/02/16 00:18:59;;;;;;;22.10;9.70;;;;;;;-0.82;77.48;99902.06;109045;1277;139008;-58
2022/02/16 00:21:27;;;;;;;13.10;7.70;;;;;;;-0.81;77.76;99900.92;109246;1276;22428;-57
2022/02/16 00:23:57;;;;;;;13.60;7.90;;;;;;;-0.83;77.44;99897.31;109211;1276;22471;-58
2022/02/16 00:26:43;;;;;;;40.20;11.90;;;;;;;-0.83;77.47;99897.02;109171;1276;138198;-58
2022/02/16 00:29:12;;;;;;;18.50;8.70;;;;;;;-0.85;77.73;99891.51;109233;1277;22503;-57
2022/02/16 00:31:40;;;;;;;11.40;8.10;;;;;;;-0.86;77.59;99886.17;109145;1274;138383;-58
2022/02/16 00:34:08;;;;;;;17.50;8.70;;;;;;;-0.89;77.41;99888.08;109212;1277;22458;-57
2022/02/16 00:36:36;;;;;;;14.90;8.10;;;;;;;-0.92;77.68;99886.52;109254;1277;22437;-57
2022/02/16 00:39:06;;;;;;;15.40;8.20;;;;;;;-0.97;77.56;99883.66;109097;1276;138112;-57
2022/02/16 00:41:34;;;;;;;15.30;7.60;;;;;;;-0.96;77.36;99882.35;109138;1277;22434;-58
2022/02/16 00:44:02;;;;;;;16.60;7.60;;;;;;;-0.96;77.59;99886.05;109058;1276;138231;-57
2022/02/16 00:46:30;;;;;;;11.50;7.40;;;;;;;-0.98;77.57;99885.73;109206;1276;23167;-57
2022/02/16 00:48:58;;;;;;;74.80;22.40;;;;;;;-0.98;77.60;99885.77;109109;1276;138256;-57
2022/02/16 00:51:26;;;;;;;116.80;29.40;;;;;;;-0.97;77.91;99887.20;109224;1277;23184;-58
2022/02/16 00:53:55;;;;;;;177.50;40.80;;;;;;;-0.97;77.82;99882.62;109171;1276;22533;-57
2022/02/16 00:56:28;;;;;;;83.40;21.80;;;;;;;-0.99;77.79;99879.98;109030;1277;138060;-57
2022/02/16 00:58:56;;;;;;;30.50;11.70;;;;;;;-1.01;77.67;99876.00;109335;1276;23277;-58
2022/02/16 01:01:24;;;;;;;17.60;9.10;;;;;;;-1.04;77.72;99875.91;109094;1277;138467;-57
2022/02/16 01:03:54;;;;;;;20.40;10.60;;;;;;;-1.07;77.61;99873.02;109147;1277;23118;-58
2022/02/16 01:06:23;;;;;;;15.80;8.10;;;;;;;-1.09;77.79;99868.98;109129;1277;22484;-58
2022/02/16 01:08:53;;;;;;;15.60;8.20;;;;;;;-1.11;77.78;99870.49;109072;1276;137573;-58
2022/02/16 01:11:21;;;;;;;32.90;13.60;;;;;;;-1.14;77.65;99870.42;109016;1277;22455;-58
2022/02/16 01:13:51;;;;;;;31.80;14.00;;;;;;;-1.18;77.62;99872.84;109034;1277;138334;-58
2022/02/16 01:16:19;;;;;;;20.70;9.40;;;;;;;-1.23;77.35;99868.58;109120;1277;22571;-58
2022/02/16 01:18:49;;;;;;;29.40;10.70;;;;;;;-1.25;77.56;99869.02;109316;1276;24593;-58
2022/02/16 01:21:18;;;;;;;18.40;8.50;;;;;;;-1.30;77.86;99861.95;109025;1276;139471;-58
2022/02/16 01:23:47;;;;;;;27.20;10.60;;;;;;;-1.25;77.94;99870.08;109156;1277;22454;-58
2022/02/16 01:26:17;;;;;;;20.80;9.30;;;;;;;-1.26;77.95;99862.20;109008;1277;139507;-59
2022/02/16 01:28:53;;;;;;;19.90;8.00;;;;;;;-1.27;77.92;99862.80;109326;1276;22433;-59
2022/02/16 01:31:22;;;;;;;16.80;9.60;;;;;;;-1.29;78.13;99852.52;108969;1277;138029;-58
2022/02/16 01:33:50;;;;;;;18.40;8.30;;;;;;;-1.26;78.12;99850.40;109067;1277;23687;-58
2022/02/16 01:36:20;;;;;;;14.80;8.70;;;;;;;-1.25;78.32;99843.35;109116;1277;22452;-58
2022/02/16 01:38:52;;;;;;;19.40;8.60;;;;;;;-1.23;78.73;99840.84;108920;1277;137291;-58
2022/02/16 01:41:25;;;;;;;14.60;8.10;;;;;;;-1.20;78.84;99833.05;104956;1277;23145;-58
2022/02/16 01:44:08;;;;;;;17.50;8.70;;;;;;;-1.17;79.26;99833.37;104594;1280;138781;-58
2022/02/16 01:46:53;;;;;;;15.60;8.60;;;;;;;-1.14;79.49;99828.23;104768;1277;22583;-58
2022/02/16 01:49:24;;;;;;;15.50;8.30;;;;;;;-1.12;79.52;99827.74;104670;1277;138380;-58
2022/02/16 01:51:52;;;;;;;18.50;9.10;;;;;;;-1.10;79.64;99829.48;109004;1278;23356;-58
2022/02/16 01:54:23;;;;;;;16.40;8.90;;;;;;;-1.06;79.69;99832.27;109100;1276;22620;-59
2022/02/16 01:56:52;;;;;;;15.30;8.20;;;;;;;-1.02;79.85;99833.26;108975;1277;138748;-58
2022/02/16 01:59:22;;;;;;;18.50;8.70;;;;;;;-0.99;80.06;99832.69;109127;1277;22444;-58
2022/02/16 02:02:25;;;;;;;15.20;8.00;;;;;;;-0.93;80.00;99834.03;109034;1277;138107;-58
2022/02/16 02:04:57;;;;;;;14.40;7.70;;;;;;;-0.91;80.39;99818.65;109091;1277;23351;-58
2022/02/16 02:07:25;;;;;;;17.30;8.00;;;;;;;-0.84;80.53;99821.56;109017;1277;139840;-58
2022/02/16 02:09:54;;;;;;;15.50;7.70;;;;;;;-0.80;80.33;99817.98;108703;1280;23296;-58
2022/02/16 02:12:22;;;;;;;19.30;9.80;;;;;;;-0.74;80.48;99817.53;109114;1277;22447;-58
2022/02/16 02:14:51;;;;;;;15.40;8.50;;;;;;;-0.68;80.61;99817.91;108929;1277;138174;-59
2022/02/16 02:17:26;;;;;;;14.60;7.50;;;;;;;-0.63;80.46;99815.70;109118;1277;22454;-58
2022/02/16 02:19:54;;;;;;;17.50;9.10;;;;;;;-0.59;80.32;99815.34;108946;1277;137083;-58
2022/02/16 02:22:23;;;;;;;14.90;8.60;;;;;;;-0.60;80.31;99806.00;109095;1277;23566;-58
2022/02/16 02:24:51;;;;;;;21.40;10.40;;;;;;;-0.51;80.38;99812.87;109037;1277;22483;-58
2022/02/16 02:27:19;;;;;;;20.10;10.20;;;;;;;-0.47;80.18;99809.19;109012;1277;138012;-58
2022/02/16 02:29:47;;;;;;;20.90;10.10;;;;;;;-0.46;80.12;99804.77;109146;1275;22429;-59
2022/02/16 02:32:16;;;;;;;17.80;9.30;;;;;;;-0.45;80.16;99807.67;108991;1277;137494;-58
2022/02/16 02:34:45;;;;;;;54.80;17.00;;;;;;;-0.45;79.80;99809.82;109129;1277;22470;-58
2022/02/16 02:37:13;;;;;;;22.20;10.00;;;;;;;-0.44;79.73;99808.42;109219;1276;137813;-59
2022/02/16 02:39:41;;;;;;;17.00;8.80;;;;;;;-0.43;79.90;99808.84;109126;1277;22457;-58
2022/02/16 02:42:09;;;;;;;16.40;9.20;;;;;;;-0.44;79.67;99804.89;109140;1276;22520;-59
2022/02/16 02:44:38;;;;;;;15.10;7.90;;;;;;;-0.44;79.84;99808.06;109120;1276;138853;-59
2022/02/16 02:47:06;;;;;;;14.70;8.00;;;;;;;-0.44;79.67;99806.65;109164;1277;23413;-58
2022/02/16 02:49:35;;;;;;;12.60;7.90;;;;;;;-0.44;79.71;99803.04;109103;1276;139389;-58
2022/02/16 02:52:04;;;;;;;16.90;8.60;;;;;;;-0.43;79.75;99809.66;109211;1277;22485;-58
2022/02/16 02:54:35;;;;;;;17.00;8.20;;;;;;;-0.43;79.73;99806.45;109104;1276;22611;-58
2022/02/16 02:57:03;;;;;;;17.20;8.80;;;;;;;-0.41;79.82;99808.62;109024;1277;138823;-58
2022/02/16 02:59:31;;;;;;;31.90;15.40;;;;;;;-0.40;79.78;99810.83;109258;1275;23585;-58
2022/02/16 03:01:59;;;;;;;19.60;10.50;;;;;;;-0.38;79.60;99814.69;108927;1277;138486;-58
2022/02/16 03:04:28;;;;;;;23.00;11.40;;;;;;;-0.38;79.71;99810.20;109148;1277;22446;-58
2022/02/16 03:06:56;;;;;;;31.10;15.20;;;;;;;-0.36;79.92;99804.30;109182;1275;137499;-59
2022/02/16 03:09:25;;;;;;;23.20;13.00;;;;;;;-0.37;79.87;99797.95;109114;1277;22493;-59
2022/02/16 03:11:52;;;;;;;21.60;11.40;;;;;;;-0.38;79.94;99796.58;109367;1276;22509;-58
2022/02/16 03:14:21;;;;;;;20.60;10.50;;;;;;;-0.39;79.83;99795.53;109098;1276;137136;-58
2022/02/16 03:16:49;;;;;;;22.00;11.90;;;;;;;-0.40;79.93;99800.45;109202;1277;22559;-58
2022/02/16 03:19:18;;;;;;;24.10;13.10;;;;;;;-0.42;80.11;99799.80;109037;1275;141128;-58
2022/02/16 03:21:46;;;;;;;17.80;11.30;;;;;;;-0.43;79.89;99799.09;109209;1277;23523;-58
2022/02/16 03:24:14;;;;;;;18.50;9.80;;;;;;;-0.44;80.07;99800.44;109165;1276;22463;-58
2022/02/16 03:26:42;;;;;;;21.60;11.20;;;;;;;-0.43;80.06;99804.05;109129;1277;138968;-59
2022/02/16 03:29:10;;;;;;;16.20;9.20;;;;;;;-0.40;80.53;99801.39;109129;1277;23226;-58
2022/02/16 03:31:46;;;;;;;15.80;8.90;;;;;;;-0.38;80.40;99795.52;108966;1277;139291;-58
2022/02/16 03:34:15;;;;;;;17.00;9.30;;;;;;;-0.35;80.94;99793.25;109150;1277;22542;-59
2022/02/16 03:36:46;;;;;;;17.10;9.60;;;;;;;-0.32;80.87;99791.20;109132;1277;22480;-58
2022/02/16 03:39:14;;;;;;;15.90;8.60;;;;;;;-0.31;80.66;99782.65;109086;1275;138973;-59
2022/02/16 03:41:42;;;;;;;20.40;11.60;;;;;;;-0.27;80.84;99780.89;109129;1277;23379;-58
2022/02/16 03:44:11;;;;;;;28.60;12.70;;;;;;;-0.25;80.85;99774.61;109043;1277;139609;-58
2022/02/16 03:46:44;;;;;;;22.90;11.80;;;;;;;-0.26;81.19;99768.67;109225;1277;22486;-59
2022/02/16 03:49:12;;;;;;;19.70;11.10;;;;;;;-0.25;81.03;99770.71;109068;1277;139634;-59
2022/02/16 03:51:40;;;;;;;19.20;10.70;;;;;;;-0.23;81.35;99773.83;109131;1276;22430;-58
2022/02/16 03:54:08;;;;;;;20.20;10.70;;;;;;;-0.22;81.09;99773.39;109037;1277;22456;-58
2022/02/16 03:56:36;;;;;;;22.60;10.30;;;;;;;-0.20;81.04;99776.32;109101;1276;138182;-58
2022/02/16 03:59:05;;;;;;;19.50;10.60;;;;;;;-0.19;81.41;99773.33;109144;1276;22572;-58
2022/02/16 04:01:35;;;;;;;18.20;9.50;;;;;;;-0.18;81.26;99770.71;109025;1277;139511;-58
2022/02/16 04:04:03;;;;;;;16.60;10.40;;;;;;;-0.16;81.51;99770.50;109180;1277;23665;-58
2022/02/16 04:06:32;;;;;;;22.50;10.70;;;;;;;-0.15;81.42;99768.28;109249;1276;22531;-58
2022/02/16 04:09:00;;;;;;;27.00;12.80;;;;;;;-0.15;81.39;99758.20;108982;1276;138698;-59
2022/02/16 04:11:28;;;;;;;27.20;14.20;;;;;;;-0.14;81.44;99753.08;109145;1277;22423;-58
2022/02/16 04:13:57;;;;;;;23.30;11.60;;;;;;;-0.15;81.73;99752.14;109177;1276;138550;-58
2022/02/16 04:16:25;;;;;;;23.60;13.00;;;;;;;-0.14;81.80;99751.30;109223;1276;22499;-58
2022/02/16 04:18:54;;;;;;;20.50;11.50;;;;;;;-0.12;81.96;99755.94;109053;1276;139713;-59
2022/02/16 04:21:22;;;;;;;18.30;10.90;;;;;;;-0.11;81.88;99761.11;109094;1277;23551;-58
2022/02/16 04:23:51;;;;;;;19.60;11.70;;;;;;;-0.11;81.73;99759.80;109095;1277;23356;-58
2022/02/16 04:26:20;;;;;;;20.60;10.50;;;;;;;-0.09;82.22;99759.09;109111;1276;138518;-58
2022/02/16 04:28:52;;;;;;;18.90;11.30;;;;;;;-0.12;81.94;99750.48;109099;1277;22622;-59
2022/02/16 04:31:22;;;;;;;19.30;11.20;;;;;;;-0.07;82.01;99753.45;109107;1277;137738;-58
2022/02/16 04:33:50;;;;;;;24.30;12.90;;;;;;;-0.08;81.86;99749.02;109153;1277;22473;-58
2022/02/16 04:36:25;;;;;;;20.50;10.70;;;;;;;-0.05;82.17;99754.70;109020;1277;22472;-59
2022/02/16 04:38:56;;;;;;;22.10;11.70;;;;;;;-0.04;81.99;99748.34;109092;1276;138878;-58
2022/02/16 04:41:25;;;;;;;18.70;10.10;;;;;;;-0.04;82.02;99749.00;105087;1277;24215;-58
2022/02/16 04:43:53;;;;;;;18.00;10.40;;;;;;;-0.06;82.13;99739.61;104549;1277;138291;-58
2022/02/16 04:46:21;;;;;;;18.70;10.30;;;;;;;-0.01;82.15;99749.49;104863;1277;24280;-58
2022/02/16 04:48:49;;;;;;;17.30;10.40;;;;;;;0.01;82.19;99753.97;109063;1277;23255;-58
2022/02/16 04:51:17;;;;;;;20.40;11.10;;;;;;;0.04;82.23;99752.89;109230;1276;137739;-59
2022/02/16 04:53:46;;;;;;;18.90;11.10;;;;;;;0.07;82.06;99754.46;109203;1276;22437;-58
2022/02/16 04:56:14;;;;;;;23.10;10.60;;;;;;;0.09;82.02;99754.08;109050;1277;140075;-58
2022/02/16 04:58:42;;;;;;;26.20;12.80;;;;;;;0.12;82.23;99754.45;109207;1277;22469;-59
2022/02/16 05:01:10;;;;;;;19.20;11.20;;;;;;;0.14;82.26;99755.84;109186;1276;138795;-58
2022/02/16 05:03:43;;;;;;;18.40;11.50;;;;;;;0.15;82.10;99757.41;109143;1276;22440;-58
2022/02/16 05:06:11;;;;;;;27.40;12.70;;;;;;;0.17;82.33;99764.11;109403;1274;22500;-58
2022/02/16 05:08:39;;;;;;;24.70;13.90;;;;;;;0.20;82.10;99763.09;109242;1274;137484;-58
2022/02/16 05:11:07;;;;;;;23.90;14.50;;;;;;;0.21;82.27;99760.64;109469;1274;22654;-58
2022/02/16 05:13:41;;;;;;;23.30;13.80;;;;;;;0.22;82.19;99765.67;109187;1274;138942;-58
2022/02/16 05:16:10;;;;;;;19.70;12.50;;;;;;;0.24;82.01;99769.21;109312;1274;22530;-59
2022/02/16 05:18:38;;;;;;;29.20;15.70;;;;;;;0.25;82.08;99769.94;109329;1274;22414;-58
2022/02/16 05:21:12;;;;;;;28.00;15.20;;;;;;;0.26;81.79;99776.80;109284;1274;138282;-58
2022/02/16 05:23:44;;;;;;;26.10;15.20;;;;;;;0.27;81.97;99777.75;109256;1274;22510;-58
2022/02/16 05:26:13;;;;;;;27.00;13.70;;;;;;;0.29;82.32;99787.13;109330;1274;139575;-58
2022/02/16 05:28:42;;;;;;;26.00;14.30;;;;;;;0.32;82.13;99788.32;109442;1274;22470;-59
2022/02/16 05:31:10;;;;;;;20.40;12.70;;;;;;;0.34;81.93;99785.96;109218;1274;139060;-58
2022/02/16 05:33:39;;;;;;;17.30;10.20;;;;;;;0.37;82.46;99783.73;109267;1275;22641;-58
2022/02/16 05:36:11;;;;;;;19.10;11.00;;;;;;;0.40;82.00;99780.89;109287;1274;23096;-58
2022/02/16 05:38:39;;;;;;;22.50;12.50;;;;;;;0.41;82.12;99778.06;109230;1274;139177;-58
2022/02/16 05:41:07;;;;;;;20.70;11.70;;;;;;;0.40;82.17;99783.90;109268;1275;22420;-58
2022/02/16 05:43:36;;;;;;;19.90;12.00;;;;;;;0.44;82.40;99786.13;109249;1274;138507;-58
2022/02/16 05:46:06;;;;;;;18.60;11.00;;;;;;;0.44;82.50;99781.95;109266;1276;22546;-58
2022/02/16 05:48:37;;;;;;;24.90;13.00;;;;;;;0.45;82.28;99776.27;109228;1275;22463;-58
2022/02/16 05:51:05;;;;;;;25.40;13.90;;;;;;;0.45;82.41;99773.93;109226;1275;139016;-58
2022/02/16 05:53:33;;;;;;;26.60;13.70;;;;;;;0.46;82.33;99779.89;109242;1276;22513;-58
2022/02/16 05:56:09;;;;;;;20.40;11.60;;;;;;;0.47;82.18;99765.13;109205;1275;138346;-58
2022/02/16 05:58:38;;;;;;;26.80;14.60;;;;;;;0.47;82.01;99763.66;109241;1276;23233;-57
2022/02/16 06:01:07;;;;;;;27.70;13.90;;;;;;;0.48;82.56;99755.66;109112;1277;138648;-58
2022/02/16 06:03:46;;;;;;;23.80;12.80;;;;;;;0.49;82.43;99756.66;109311;1276;23068;-58
2022/02/16 06:06:16;;;;;;;23.70;12.80;;;;;;;0.50;82.56;99760.48;109206;1277;23333;-58
2022/02/16 06:08:45;;;;;;;26.40;13.10;;;;;;;0.52;82.39;99757.73;109204;1275;139900;-58
2022/02/16 06:11:15;;;;;;;27.20;12.90;;;;;;;0.55;82.71;99750.64;109330;1274;22476;-58
2022/02/16 06:13:44;;;;;;;26.70;15.30;;;;;;;0.55;82.51;99745.73;109160;1274;138540;-58
2022/02/16 06:16:14;;;;;;;18.10;10.90;;;;;;;0.59;82.69;99756.73;109229;1276;22505;-58
2022/02/16 06:18:45;;;;;;;23.30;12.10;;;;;;;0.59;82.32;99759.59;109326;1275;22438;-58
2022/02/16 06:21:13;;;;;;;19.90;11.60;;;;;;;0.60;82.56;99762.23;109088;1275;137153;-58
2022/02/16 06:23:45;;;;;;;22.00;12.50;;;;;;;0.62;82.64;99754.76;109305;1274;22524;-58
2022/02/16 06:26:14;;;;;;;25.60;12.80;;;;;;;0.63;82.78;99746.23;109240;1275;137701;-58
2022/02/16 06:28:42;;;;;;;21.40;12.90;;;;;;;0.62;82.60;99745.86;109314;1275;22401;-58
2022/02/16 06:31:12;;;;;;;24.10;12.30;;;;;;;0.63;82.63;99739.17;109129;1276;139491;-58
2022/02/16 06:33:40;;;;;;;22.20;12.00;;;;;;;0.65;82.78;99738.27;109260;1274;22495;-58
2022/02/16 06:36:08;;;;;;;30.10;17.70;;;;;;;0.66;82.61;99730.77;109399;1274;22489;-57
2022/02/16 06:38:41;;;;;;;36.60;16.10;;;;;;;0.67;82.73;99733.46;109226;1274;139891;-58
2022/02/16 06:41:12;;;;;;;24.70;11.00;;;;;;;0.69;82.83;99737.23;109321;1274;22465;-58
2022/02/16 06:43:40;;;;;;;24.40;12.70;;;;;;;0.68;82.72;99733.02;109191;1274;141051;-58
2022/02/16 06:46:09;;;;;;;27.20;14.60;;;;;;;0.69;83.07;99728.45;109373;1274;23603;-58
2022/02/16 06:48:38;;;;;;;25.20;14.30;;;;;;;0.72;82.80;99728.27;109382;1274;22426;-58
2022/02/16 06:51:06;;;;;;;25.20;11.90;;;;;;;0.74;82.86;99733.02;109319;1274;139064;-58
2022/02/16 06:53:34;;;;;;;23.80;13.20;;;;;;;0.75;82.89;99732.38;109336;1274;22403;-58
2022/02/16 06:56:03;;;;;;;24.70;13.50;;;;;;;0.77;82.89;99737.55;109232;1274;138340;-58
2022/02/16 06:58:57;;;;;;;23.60;13.30;;;;;;;0.79;83.22;99733.38;109216;1274;22507;-58
2022/02/16 07:01:26;;;;;;;29.40;14.60;;;;;;;0.79;83.15;99731.23;109112;1276;139623;-58
2022/02/16 07:03:53;;;;;;;23.30;12.10;;;;;;;0.80;83.23;99734.47;109245;1275;22411;-58
2022/02/16 07:06:25;;;;;;;24.40;12.40;;;;;;;0.79;83.09;99729.38;109220;1274;22452;-58
2022/02/16 07:08:54;;;;;;;27.10;12.10;;;;;;;0.77;82.96;99721.90;109285;1274;138829;-58
2022/02/16 07:11:22;;;;;;;21.70;12.20;;;;;;;0.76;83.04;99718.52;109377;1274;23796;-58
2022/02/16 07:13:50;;;;;;;24.10;12.50;;;;;;;0.75;82.92;99717.73;109222;1274;138974;-58
2022/02/16 07:16:21;;;;;;;28.00;13.70;;;;;;;0.72;82.94;99710.27;109328;1274;22520;-58
2022/02/16 07:18:50;;;;;;;23.50;12.60;;;;;;;0.75;83.18;99710.47;109337;1274;23748;-57
2022/02/16 07:21:26;;;;;;;23.20;12.20;;;;;;;0.76;83.17;99714.06;109226;1274;138251;-58
2022/02/16 07:24:03;;;;;;;31.20;13.20;;;;;;;0.77;83.08;99715.89;109403;1274;22504;-58
2022/02/16 07:26:35;;;;;;;21.50;12.50;;;;;;;0.77;83.38;99707.45;109251;1274;138869;-58
2022/02/16 07:29:07;;;;;;;21.30;11.80;;;;;;;0.81;83.38;99704.81;109407;1274;22258;-58
2022/02/16 07:31:39;;;;;;;22.10;11.90;;;;;;;0.80;83.34;99705.79;109188;1274;139328;-58
2022/02/16 07:34:07;;;;;;;23.10;13.60;;;;;;;0.78;83.11;99701.27;109242;1274;22502;-58
2022/02/16 07:36:36;;;;;;;20.80;12.30;;;;;;;0.76;83.45;99702.36;109227;1277;22495;-58
2022/02/16 07:39:07;;;;;;;32.10;16.70;;;;;;;0.76;83.57;99703.14;109131;1274;138277;-58
2022/02/16 07:41:35;;;;;;;30.60;17.70;;;;;;;0.76;83.69;99698.30;109321;1274;22415;-58
2022/02/16 07:44:23;;;;;;;34.90;19.20;;;;;;;0.76;83.46;99688.75;109317;1273;137452;-58
2022/02/16 07:46:56;;;;;;;27.50;15.10;;;;;;;0.77;83.42;99684.55;109311;1274;22705;-58
2022/02/16 07:49:25;;;;;;;26.50;15.30;;;;;;;0.78;83.78;99683.23;109295;1274;138622;-58
2022/02/16 07:52:35;;;;;;;23.20;14.10;;;;;;;0.79;83.66;99686.60;109402;1274;22488;-58
2022/02/16 07:55:12;;;;;;;20.90;12.80;;;;;;;0.79;83.63;99690.89;109256;1274;138408;-58
2022/02/16 07:57:40;;;;;;;26.10;13.10;;;;;;;0.78;83.77;99688.90;109317;1274;22606;-58
2022/02/16 08:00:09;;;;;;;23.50;13.90;;;;;;;0.79;83.85;99688.08;109382;1274;22457;-58
2022/02/16 08:02:45;;;;;;;29.00;15.60;;;;;;;0.80;83.70;99682.77;109187;1274;139971;-58
2022/02/16 08:05:18;;;;;;;28.10;15.70;;;;;;;0.81;83.88;99686.21;109459;1274;22512;-59
2022/02/16 08:07:47;;;;;;;38.00;18.00;;;;;;;0.84;83.84;99683.86;109254;1274;138015;-59
2022/02/16 08:10:15;;;;;;;26.80;14.50;;;;;;;0.86;83.76;99680.23;109300;1273;22535;-59
2022/02/16 08:12:49;;;;;;;24.80;14.80;;;;;;;0.88;83.69;99679.00;109432;1274;22416;-58
2022/02/16 08:15:17;;;;;;;27.80;14.50;;;;;;;0.92;83.40;99676.81;109231;1274;139038;-59
2022/02/16 08:17:45;;;;;;;25.70;14.30;;;;;;;0.97;83.60;99676.91;109292;1274;22456;-58
2022/02/16 08:20:14;;;;;;;22.40;14.50;;;;;;;0.98;83.57;99670.44;109074;1276;138122;-59
2022/02/16 08:23:04;;;;;;;24.40;14.90;;;;;;;1.02;83.27;99672.41;109306;1274;22436;-59
2022/02/16 08:25:32;;;;;;;23.10;13.80;;;;;;;1.03;83.48;99664.48;109308;1274;138563;-59
2022/02/16 08:28:11;;;;;;;23.50;14.40;;;;;;;1.03;83.21;99661.97;109249;1274;23367;-58
2022/02/16 08:30:39;;;;;;;26.90;15.90;;;;;;;1.02;83.13;99656.48;109428;1274;22406;-59
2022/02/16 08:33:12;;;;;;;27.50;15.60;;;;;;;1.01;83.02;99657.70;109224;1274;139591;-58
2022/02/16 08:35:57;;;;;;;32.70;17.20;;;;;;;1.00;82.92;99660.52;109367;1274;22470;-58
2022/02/16 08:38:25;;;;;;;33.70;17.10;;;;;;;1.00;82.70;99658.25;109346;1274;139110;-58
2022/02/16 08:40:53;;;;;;;36.80;17.40;;;;;;;1.01;82.91;99659.28;106183;1274;25379;-58
2022/02/16 08:43:26;;;;;;;31.40;16.70;;;;;;;1.05;83.00;99653.48;109330;1273;140043;-58
2022/02/16 08:45:54;;;;;;;28.60;16.30;;;;;;;1.08;82.99;99656.33;109454;1273;22464;-58
2022/02/16 08:48:23;;;;;;;31.90;16.90;;;;;;;1.12;83.31;99658.31;109430;1273;22461;-58
2022/02/16 08:50:52;;;;;;;27.90;16.40;;;;;;;1.15;83.00;99647.80;109371;1274;139972;-58
2022/02/16 08:53:22;;;;;;;30.90;16.50;;;;;;;1.22;82.69;99650.11;109488;1274;22614;-58
2022/02/16 08:55:58;;;;;;;28.80;16.20;;;;;;;1.25;82.97;99647.18;109327;1274;138725;-58
2022/02/16 08:58:27;;;;;;;29.80;16.10;;;;;;;1.30;83.05;99645.97;109292;1274;23225;-58
2022/02/16 09:00:56;;;;;;;29.50;16.90;;;;;;;1.36;83.01;99645.93;109423;1274;22436;-59
2022/02/16 09:03:24;;;;;;;32.60;17.20;;;;;;;1.42;82.99;99648.96;109114;1274;137353;-59
2022/02/16 09:05:52;;;;;;;30.40;17.80;;;;;;;1.46;82.56;99651.65;109439;1274;22550;-59
2022/02/16 09:08:21;;;;;;;35.40;18.70;;;;;;;1.51;82.81;99652.48;109353;1274;137440;-58
2022/02/16 09:10:49;;;;;;;26.00;16.30;;;;;;;1.55;82.47;99654.83;109432;1273;23735;-59
2022/02/16 09:13:17;;;;;;;38.60;18.70;;;;;;;1.56;82.47;99648.02;109338;1274;137531;-58
2022/02/16 09:15:47;;;;;;;33.50;17.50;;;;;;;1.57;82.13;99647.41;109451;1274;22299;-58
2022/02/16 09:18:17;;;;;;;36.30;18.60;;;;;;;1.57;81.85;99642.38;109437;1274;23244;-59
2022/02/16 09:20:47;;;;;;;30.40;18.00;;;;;;;1.57;81.89;99638.58;109336;1274;138604;-59
2022/02/16 09:23:16;;;;;;;25.60;16.00;;;;;;;1.58;82.12;99641.88;109467;1274;22518;-58
2022/02/16 09:25:44;;;;;;;30.40;17.40;;;;;;;1.58;81.90;99637.80;109284;1274;138166;-59
2022/02/16 09:28:13;;;;;;;33.90;17.50;;;;;;;1.59;81.91;99639.05;109444;1274;23334;-58
2022/02/16 09:30:42;;;;;;;27.10;15.50;;;;;;;1.61;81.98;99638.25;109456;1274;22582;-58
2022/02/16 09:33:11;;;;;;;34.30;17.30;;;;;;;1.63;81.82;99633.22;109312;1274;139041;-58
2022/02/16 09:35:39;;;;;;;31.90;17.60;;;;;;;1.64;81.70;99628.94;109467;1273;22603;-59
2022/02/16 09:38:11;;;;;;;32.10;18.20;;;;;;;1.64;81.96;99625.09;109347;1274;138464;-58
2022/02/16 09:40:45;;;;;;;33.70;18.70;;;;;;;1.66;81.76;99620.23;106575;1273;22725;-58
2022/02/16 09:43:17;;;;;;;35.60;18.70;;;;;;;1.65;81.79;99616.34;104924;1274;137507;-58
2022/02/16 09:45:45;;;;;;;38.10;20.60;;;;;;;1.67;81.92;99616.64;104982;1274;25355;-58
2022/02/16 09:48:14;;;;;;;32.50;19.60;;;;;;;1.69;81.67;99617.15;104875;1275;25464;-58
2022/02/16 09:50:42;;;;;;;36.50;18.20;;;;;;;1.69;81.75;99623.60;109317;1274;137978;-59
2022/02/16 09:53:11;;;;;;;30.80;17.80;;;;;;;1.70;81.67;99621.00;109374;1274;22423;-58
2022/02/16 09:55:39;;;;;;;35.50;19.30;;;;;;;1.70;81.84;99611.96;109242;1274;139029;-58
2022/02/16 09:58:07;;;;;;;31.00;16.90;;;;;;;1.73;81.65;99597.83;109414;1274;23516;-58
2022/02/16 10:00:36;;;;;;;30.70;17.70;;;;;;;1.73;81.66;99590.06;109385;1274;22267;-58
2022/02/16 10:03:10;;;;;;;31.90;18.00;;;;;;;1.74;81.83;99586.00;109304;1274;138243;-59
2022/02/16 10:05:39;;;;;;;35.70;18.10;;;;;;;1.77;81.61;99589.08;109409;1274;23195;-58
2022/02/16 10:08:07;;;;;;;32.30;18.60;;;;;;;1.79;81.94;99580.92;109331;1274;138094;-58
2022/02/16 10:10:36;;;;;;;35.20;18.00;;;;;;;1.82;81.64;99583.45;109400;1274;22476;-58
2022/02/16 10:13:19;;;;;;;36.30;18.90;;;;;;;1.84;81.51;99583.92;109286;1274;137837;-59
2022/02/16 10:16:05;;;;;;;34.50;18.20;;;;;;;1.84;81.51;99580.62;109333;1274;22416;-59
2022/02/16 10:19:01;;;;;;;29.70;18.80;;;;;;;1.87;81.52;99571.21;109384;1274;22469;-58
2022/02/16 10:21:29;;;;;;;31.40;17.70;;;;;;;1.83;81.33;99563.58;109313;1274;137679;-58
2022/02/16 10:23:59;;;;;;;30.60;17.50;;;;;;;1.81;80.94;99554.02;109440;1274;23348;-58
2022/02/16 10:26:47;;;;;;;29.30;17.00;;;;;;;1.81;81.09;99552.95;109298;1274;138228;-58
2022/02/16 10:29:19;;;;;;;32.30;18.20;;;;;;;1.83;80.94;99553.05;109423;1274;22491;-58
2022/02/16 10:31:55;;;;;;;37.00;19.00;;;;;;;1.86;80.98;99549.80;109330;1272;138622;-58
2022/02/16 10:34:56;;;;;;;36.50;19.20;;;;;;;1.88;80.96;99545.19;109287;1274;22466;-58
2022/02/16 10:37:31;;;;;;;31.80;19.70;;;;;;;1.90;81.04;99544.91;109158;1275;141321;-58
2022/02/16 10:40:10;;;;;;;36.90;19.30;;;;;;;1.94;80.97;99538.20;109322;1275;22605;-58
2022/02/16 10:42:56;;;;;;;32.40;17.90;;;;;;;1.95;80.96;99535.89;109314;1275;22419;-59
2022/02/16 10:45:31;;;;;;;35.80;18.70;;;;;;;1.96;80.96;99532.55;109197;1274;138714;-58
2022/02/16 10:48:04;;;;;;;28.80;18.00;;;;;;;1.96;80.97;99530.02;109330;1274;23275;-59
2022/02/16 10:50:37;;;;;;;28.80;17.50;;;;;;;1.94;81.08;99523.40;109229;1276;138377;-59
2022/02/16 10:53:09;;;;;;;30.60;17.60;;;;;;;1.95;81.03;99517.24;109299;1274;23239;-59
2022/02/16 10:55:47;;;;;;;30.00;17.80;;;;;;;1.94;80.95;99516.42;109193;1276;140272;-59
2022/02/16 10:58:18;;;;;;;29.60;17.60;;;;;;;1.96;81.11;99513.15;109350;1275;22497;-58
2022/02/16 11:00:48;;;;;;;28.20;17.80;;;;;;;1.96;81.06;99499.65;109290;1276;22267;-59
2022/02/16 11:03:31;;;;;;;35.00;18.30;;;;;;;2.02;81.00;99501.65;109196;1275;138143;-58
2022/02/16 11:06:01;;;;;;;30.20;18.10;;;;;;;2.04;81.10;99497.33;109331;1275;23294;-58
2022/02/16 11:08:30;;;;;;;31.20;17.40;;;;;;;2.06;80.95;99493.71;109224;1276;139373;-58
2022/02/16 11:11:19;;;;;;;28.30;16.20;;;;;;;2.09;81.04;99501.36;109358;1274;23373;-59
2022/02/16 11:14:06;;;;;;;35.30;18.70;;;;;;;2.12;81.00;99498.10;109157;1277;138216;-58
2022/02/16 11:16:35;;;;;;;29.00;17.80;;;;;;;2.10;80.67;99487.92;109344;1276;22514;-58
2022/02/16 11:19:23;;;;;;;31.40;18.90;;;;;;;2.10;80.90;99489.04;109190;1277;22481;-58
2022/02/16 11:21:58;;;;;;;33.40;19.10;;;;;;;2.11;80.81;99503.02;109205;1274;137955;-59
2022/02/16 11:24:30;;;;;;;33.30;18.50;;;;;;;2.10;80.91;99509.76;109367;1274;23279;-58
2022/02/16 11:26:58;;;;;;;28.90;18.30;;;;;;;2.11;81.02;99512.91;109192;1276;137648;-58
2022/02/16 11:29:27;;;;;;;35.10;19.60;;;;;;;2.13;80.94;99505.35;109338;1274;22687;-58